Hardy, Nebraska
Current Conditions -  °F | °C
As of 3:35 PM on Friday 28 Nov 2014 (Local Time) from KHJH Reporting Station
Clear Clear  
Wind Chill: 64°   Ceiling: Unl
Heat Index: 64°   Visibility: 10mi
Dew Point: 27°   Wind: 9mph
Humidity: 24%   Direction: 210°SSW
Pressure: 29.7"   Gusts: NA
Location:  40.01°N, 97.93°W
Report Text: KHJH 282135Z AUTO 21008KT 10SM CLR 18/M03 A2970 RMK AO2 T01801030
Loading
Personal Weather Stations






























Interactive Weather Map New forecast layout! Learn more

10-Day Weather Forecast

Advertisements
Track Severe Weather on mobile